Terminal Aerodrome Forecast
Issued by NWS

Home | Current Version | Previous Version | Text Only | Print | Product List | Glossary On
Versions: 1 2 3 4 5 6 7 8 9 10 11 12 13 14 15 16 17 18 19 20 21 22 23 24 25 26 27 28 29 30 31 32 33 34
000
FTUS43 KFGF 240520
TAFTVF
TAF
KTVF 240520Z 2406/2506 05008KT 5SM SHRA OVC015
     FM240900 02009KT 6SM SHRA OVC008
     FM241500 01008KT 5SM SHRA OVC008
     FM241800 34009KT 5SM SHRA OVC008=

USA.gov is the U.S. government's official web portal to all federal, state and local government web resources and services.